Kansas, Vermont
Current Conditions -  °F | °C
As of 9:54 PM on Thursday 18 Dec 2014 (Local Time) from KDDH Reporting Station
Overcast Overcast  
Wind Chill: 23°   Ceiling: 2200
Heat Index: 31°   Visibility: 10mi
Dew Point: 25°   Wind: 9mph
Humidity: 79%   Direction: 280°W
Pressure: 29.89"   Gusts: NA
Location:  43.0661°N, 73.1407°W
Report Text: KDDH 190254Z AUTO 28008KT 10SM OVC022 M01/M04 A2989 RMK AO2 SLP129 T10061039 56006
Loading
Personal Weather Stations






























Interactive Weather Map New forecast layout! Learn more

10-Day Weather Forecast

Advertisements
Track Severe Weather on mobile